Sakura — JG5711 — position and weather

sailwx.info

Track history (hours):
 
Tides and Currents Weather Stations Pressure Air Temp Water Temp Dewpoint Dewpoint Depression Visibility Wind Speed Wind Dir Waves Ship Positions

Sakura

Last reported at 2015-May-29 22:34 UTC. Time now 2015-May-30 18:27 UTC.
Position N 35°28' E 139°41'.

Length 32 m; draft 3.6 m.

Type: Tug. MMSI: 431101178.

Date/timePositionNaut miles runAvg speedWind from/ knotsBaromVisibWave heightAir tempDewpointWater temp
2015-May-29 22:34N 35°28' E 139°41'1 0.7
2015-May-29 21:33N 35°28' E 139°42'1 1.1
2015-May-29 20:33N 35°27' E 139°42'1 1.5
2015-May-29 19:33N 35°28' E 139°42'1 1.2
2015-May-29 18:33N 35°28' E 139°40'0 0.0
2015-May-29 17:33N 35°28' E 139°40'0 0.0
2015-May-29 16:33N 35°28' E 139°40'0 0.0
2015-May-29 15:33N 35°28' E 139°40'0 0.0
2015-May-29 14:33N 35°28' E 139°40'0 0.0
2015-May-29 13:33N 35°28' E 139°40'0 0.0
2015-May-29 12:34N 35°28' E 139°40'2 2.2
2015-May-29 11:33N 35°25' E 139°41'1 0.7
2015-May-29 10:33N 35°25' E 139°41'2 1.7
2015-May-29 09:33N 35°27' E 139°41'1 0.7
2015-May-29 08:33N 35°28' E 139°41'1 0.8
2015-May-29 07:33N 35°28' E 139°41'2 1.7
2015-May-29 06:33N 35°27' E 139°40'0 0.0
2015-May-29 05:33N 35°27' E 139°40'0 0.0
2015-May-29 04:34N 35°27' E 139°40'0 0.0
2015-May-29 03:33N 35°27' E 139°40'0 0.0
2015-May-29 02:33N 35°27' E 139°40'0 0.0
2015-May-29 01:33N 35°27' E 139°40'0 0.0
2015-May-29 00:33N 35°27' E 139°40'0 0.0
2015-May-28 23:33N 35°27' E 139°40'1 1.2
2015-May-28 22:33N 35°27' E 139°41'1 1.2
2015-May-28 21:34N 35°27' E 139°40'0 0.0
2015-May-28 20:34N 35°27' E 139°40'0 0.0
2015-May-28 07:05N 35°27' E 139°40'0 0.0
2015-May-28 06:33N 35°27' E 139°40'1 1.0
2015-May-28 05:33N 35°27' E 139°41'2 2.1
2015-May-28 04:33N 35°28' E 139°43'3 3.1
2015-May-28 03:33N 35°27' E 139°40'0 0.0
2015-May-28 02:33N 35°27' E 139°40'0 0.0
2015-May-28 01:33N 35°27' E 139°40'0 0.0
2015-May-28 00:33N 35°27' E 139°40'0 0.0
2015-May-27 23:33N 35°27' E 139°40'0 0.0
2015-May-27 08:20N 35°27' E 139°40'0 0.0
2015-May-27 07:33N 35°27' E 139°40'0 0.0
2015-May-27 06:33N 35°27' E 139°40'0 0.0
2015-May-27 05:33N 35°27' E 139°40'1 1.2
2015-May-27 04:34N 35°27' E 139°41'2 2.3
2015-May-27 03:33N 35°26' E 139°43'3 3.2
2015-May-27 02:33N 35°27' E 139°39'0 0.0
2015-May-27 01:33N 35°27' E 139°39'1 1.3
2015-May-27 00:34N 35°27' E 139°41'3 2.6
2015-May-26 23:33N 35°27' E 139°44'1 0.6
2015-May-26 22:34N 35°27' E 139°44'1 1.3
2015-May-26 21:33N 35°26' E 139°42'2 2.2
2015-May-26 20:33N 35°27' E 139°40'3 0.2
2015-May-26 07:34N 35°29' E 139°42'4 3.7
2015-May-26 06:34N 35°31' E 139°46'1 1.1
2015-May-26 05:34N 35°30' E 139°46'0 0.0
2015-May-26 04:33N 35°30' E 139°46'6 5.9
2015-May-26 03:34N 35°26' E 139°41'1 0.8
2015-May-26 02:33N 35°26' E 139°42'2 1.9
2015-May-26 01:33N 35°27' E 139°40'0 0.0
2015-May-26 00:34N 35°27' E 139°40'0 0.0
2015-May-25 23:34N 35°27' E 139°40'0 0.0
2015-May-25 22:34N 35°27' E 139°40'0 0.0
2015-May-25 21:34N 35°27' E 139°40'1 0.1
2015-May-25 10:34N 35°28' E 139°40'2 2.0
2015-May-25 09:34N 35°29' E 139°42'2 2.5
2015-May-25 08:34N 35°27' E 139°40'0 0.0
2015-May-25 07:33N 35°27' E 139°40'0 0.0
2015-May-25 06:34N 35°27' E 139°40'0 0.0
2015-May-25 05:34N 35°27' E 139°40'0 0.0
2015-May-25 04:34N 35°27' E 139°40'0 0.0
2015-May-25 03:34N 35°27' E 139°40'0 0.0
2015-May-25 02:34N 35°27' E 139°40'1 0.5
2015-May-25 01:33N 35°27' E 139°40'4 3.7
2015-May-25 00:33N 35°24' E 139°38'3 3.0
2015-May-24 23:34N 35°24' E 139°42'4 3.6
2015-May-24 22:34N 35°27' E 139°40'0 0.0
2015-May-24 21:34N 35°27' E 139°40'0 0.0
2015-May-24 20:34N 35°27' E 139°40'0 0.0
2015-May-23 09:14N 35°27' E 139°40'0 0.0
2015-May-23 08:33N 35°27' E 139°40'6 5.9
2015-May-23 07:33N 35°29' E 139°46'3 3.3
2015-May-23 06:33N 35°29' E 139°42'3 3.0
2015-May-23 05:33N 35°27' E 139°40'0 0.0
2015-May-23 04:33N 35°27' E 139°40'0 0.0
2015-May-23 03:33N 35°27' E 139°40'0 0.0
2015-May-23 02:33N 35°27' E 139°40'1 1.3
2015-May-23 01:33N 35°28' E 139°41'5 5.5
2015-May-23 00:33N 35°31' E 139°46'3 2.6
2015-May-22 23:33N 35°29' E 139°47'3 2.5
2015-May-22 22:33N 35°28' E 139°45'4 4.1
2015-May-22 21:33N 35°27' E 139°40'3 0.2
2015-May-21 23:34N 35°29' E 139°42'2 1.6
2015-May-21 22:33N 35°28' E 139°43'0 0.2
2015-May-21 21:33N 35°28' E 139°44'2 1.9
2015-May-21 20:33N 35°28' E 139°41'1 1.3
2015-May-21 19:33N 35°27' E 139°40'1 1.4
2015-May-21 18:33N 35°28' E 139°41'1 0.9
2015-May-21 17:33N 35°28' E 139°40'0 0.0
2015-May-21 16:33N 35°28' E 139°40'0 0.0
2015-May-21 15:33N 35°28' E 139°40'0 0.0
2015-May-21 14:33N 35°28' E 139°40'1 0.7
2015-May-21 13:33N 35°27' E 139°41'1 1.4
2015-May-21 12:33N 35°27' E 139°42'0 0.0
2015-May-21 11:33N 35°27' E 139°42'0 0.0
2015-May-21 10:33N 35°27' E 139°42'1 1.1
2015-May-21 09:33N 35°27' E 139°44'2 2.4
2015-May-21 08:33N 35°27' E 139°41'2 1.9
2015-May-21 07:33N 35°28' E 139°39'2 1.9
2015-May-21 06:33N 35°27' E 139°40'1 0.7
2015-May-21 05:33N 35°27' E 139°40'0 0.0
2015-May-21 04:33N 35°27' E 139°40'0 0.0
2015-May-21 03:33N 35°27' E 139°40'0 0.0
2015-May-21 02:33N 35°27' E 139°40'0 0.0
2015-May-21 01:33N 35°27' E 139°40'0 0.0
2015-May-21 00:33N 35°27' E 139°40'0 0.0
2015-May-20 23:33N 35°27' E 139°40'0 0.0
2015-May-20 22:33N 35°27' E 139°40'2 2.4
2015-May-20 21:33N 35°27' E 139°42'2 2.4
2015-May-20 20:33N 35°27' E 139°40'1 0.0
2015-May-20 06:33N 35°27' E 139°40'0 0.5
2015-May-20 05:33N 35°27' E 139°40'1 0.8
2015-May-20 04:33N 35°28' E 139°41'0 0.2
2015-May-20 03:33N 35°27' E 139°40'2 2.2
2015-May-20 02:33N 35°26' E 139°42'0 0.3
2015-May-20 01:33N 35°26' E 139°42'1 1.2
2015-May-20 00:33N 35°27' E 139°41'1 1.3
2015-May-19 23:34N 35°27' E 139°39'  
Track history (hours):
 
Tides and Currents Weather Stations Pressure Air Temp Water Temp Dewpoint Dewpoint Depression Visibility Wind Speed Wind Dir Waves Ship Positions

Sakura

Last reported at 2015-May-29 22:34 UTC. Time now 2015-May-30 18:27 UTC.
Position N 35°28' E 139°41'.

Length 32 m; draft 3.6 m.

Type: Tug. MMSI: 431101178.

Date/timePositionNaut miles runAvg speedWind from/ knotsBaromVisibWave heightAir tempDewpointWater temp
2015-May-29 22:34N 35°28' E 139°41'1 0.7
2015-May-29 21:33N 35°28' E 139°42'1 1.1
2015-May-29 20:33N 35°27' E 139°42'1 1.5
2015-May-29 19:33N 35°28' E 139°42'1 1.2
2015-May-29 18:33N 35°28' E 139°40'0 0.0
2015-May-29 17:33N 35°28' E 139°40'0 0.0
2015-May-29 16:33N 35°28' E 139°40'0 0.0
2015-May-29 15:33N 35°28' E 139°40'0 0.0
2015-May-29 14:33N 35°28' E 139°40'0 0.0
2015-May-29 13:33N 35°28' E 139°40'0 0.0
2015-May-29 12:34N 35°28' E 139°40'2 2.2
2015-May-29 11:33N 35°25' E 139°41'1 0.7
2015-May-29 10:33N 35°25' E 139°41'2 1.7
2015-May-29 09:33N 35°27' E 139°41'1 0.7
2015-May-29 08:33N 35°28' E 139°41'1 0.8
2015-May-29 07:33N 35°28' E 139°41'2 1.7
2015-May-29 06:33N 35°27' E 139°40'0 0.0
2015-May-29 05:33N 35°27' E 139°40'0 0.0
2015-May-29 04:34N 35°27' E 139°40'0 0.0
2015-May-29 03:33N 35°27' E 139°40'0 0.0
2015-May-29 02:33N 35°27' E 139°40'0 0.0
2015-May-29 01:33N 35°27' E 139°40'0 0.0
2015-May-29 00:33N 35°27' E 139°40'0 0.0
2015-May-28 23:33N 35°27' E 139°40'1 1.2
2015-May-28 22:33N 35°27' E 139°41'1 1.2
2015-May-28 21:34N 35°27' E 139°40'0 0.0
2015-May-28 20:34N 35°27' E 139°40'0 0.0
2015-May-28 07:05N 35°27' E 139°40'0 0.0
2015-May-28 06:33N 35°27' E 139°40'1 1.0
2015-May-28 05:33N 35°27' E 139°41'2 2.1
2015-May-28 04:33N 35°28' E 139°43'3 3.1
2015-May-28 03:33N 35°27' E 139°40'0 0.0
2015-May-28 02:33N 35°27' E 139°40'0 0.0
2015-May-28 01:33N 35°27' E 139°40'0 0.0
2015-May-28 00:33N 35°27' E 139°40'0 0.0
2015-May-27 23:33N 35°27' E 139°40'0 0.0
2015-May-27 08:20N 35°27' E 139°40'0 0.0
2015-May-27 07:33N 35°27' E 139°40'0 0.0
2015-May-27 06:33N 35°27' E 139°40'0 0.0
2015-May-27 05:33N 35°27' E 139°40'1 1.2
2015-May-27 04:34N 35°27' E 139°41'2 2.3
2015-May-27 03:33N 35°26' E 139°43'3 3.2
2015-May-27 02:33N 35°27' E 139°39'0 0.0
2015-May-27 01:33N 35°27' E 139°39'1 1.3
2015-May-27 00:34N 35°27' E 139°41'3 2.6
2015-May-26 23:33N 35°27' E 139°44'1 0.6
2015-May-26 22:34N 35°27' E 139°44'1 1.3
2015-May-26 21:33N 35°26' E 139°42'2 2.2
2015-May-26 20:33N 35°27' E 139°40'3 0.2
2015-May-26 07:34N 35°29' E 139°42'4 3.7
2015-May-26 06:34N 35°31' E 139°46'1 1.1
2015-May-26 05:34N 35°30' E 139°46'0 0.0
2015-May-26 04:33N 35°30' E 139°46'6 5.9
2015-May-26 03:34N 35°26' E 139°41'1 0.8
2015-May-26 02:33N 35°26' E 139°42'2 1.9
2015-May-26 01:33N 35°27' E 139°40'0 0.0
2015-May-26 00:34N 35°27' E 139°40'0 0.0
2015-May-25 23:34N 35°27' E 139°40'0 0.0
2015-May-25 22:34N 35°27' E 139°40'0 0.0
2015-May-25 21:34N 35°27' E 139°40'1 0.1
2015-May-25 10:34N 35°28' E 139°40'2 2.0
2015-May-25 09:34N 35°29' E 139°42'2 2.5
2015-May-25 08:34N 35°27' E 139°40'0 0.0
2015-May-25 07:33N 35°27' E 139°40'0 0.0
2015-May-25 06:34N 35°27' E 139°40'0 0.0
2015-May-25 05:34N 35°27' E 139°40'0 0.0
2015-May-25 04:34N 35°27' E 139°40'0 0.0
2015-May-25 03:34N 35°27' E 139°40'0 0.0
2015-May-25 02:34N 35°27' E 139°40'1 0.5
2015-May-25 01:33N 35°27' E 139°40'4 3.7
2015-May-25 00:33N 35°24' E 139°38'3 3.0
2015-May-24 23:34N 35°24' E 139°42'4 3.6
2015-May-24 22:34N 35°27' E 139°40'0 0.0
2015-May-24 21:34N 35°27' E 139°40'0 0.0
2015-May-24 20:34N 35°27' E 139°40'0 0.0
2015-May-23 09:14N 35°27' E 139°40'0 0.0
2015-May-23 08:33N 35°27' E 139°40'6 5.9
2015-May-23 07:33N 35°29' E 139°46'3 3.3
2015-May-23 06:33N 35°29' E 139°42'3 3.0
2015-May-23 05:33N 35°27' E 139°40'0 0.0
2015-May-23 04:33N 35°27' E 139°40'0 0.0
2015-May-23 03:33N 35°27' E 139°40'0 0.0
2015-May-23 02:33N 35°27' E 139°40'1 1.3
2015-May-23 01:33N 35°28' E 139°41'5 5.5
2015-May-23 00:33N 35°31' E 139°46'3 2.6
2015-May-22 23:33N 35°29' E 139°47'3 2.5
2015-May-22 22:33N 35°28' E 139°45'4 4.1
2015-May-22 21:33N 35°27' E 139°40'3 0.2
2015-May-21 23:34N 35°29' E 139°42'2 1.6
2015-May-21 22:33N 35°28' E 139°43'0 0.2
2015-May-21 21:33N 35°28' E 139°44'2 1.9
2015-May-21 20:33N 35°28' E 139°41'1 1.3
2015-May-21 19:33N 35°27' E 139°40'1 1.4
2015-May-21 18:33N 35°28' E 139°41'1 0.9
2015-May-21 17:33N 35°28' E 139°40'0 0.0
2015-May-21 16:33N 35°28' E 139°40'0 0.0
2015-May-21 15:33N 35°28' E 139°40'0 0.0
2015-May-21 14:33N 35°28' E 139°40'1 0.7
2015-May-21 13:33N 35°27' E 139°41'1 1.4
2015-May-21 12:33N 35°27' E 139°42'0 0.0
2015-May-21 11:33N 35°27' E 139°42'0 0.0
2015-May-21 10:33N 35°27' E 139°42'1 1.1
2015-May-21 09:33N 35°27' E 139°44'2 2.4
2015-May-21 08:33N 35°27' E 139°41'2 1.9
2015-May-21 07:33N 35°28' E 139°39'2 1.9
2015-May-21 06:33N 35°27' E 139°40'1 0.7
2015-May-21 05:33N 35°27' E 139°40'0 0.0
2015-May-21 04:33N 35°27' E 139°40'0 0.0
2015-May-21 03:33N 35°27' E 139°40'0 0.0
2015-May-21 02:33N 35°27' E 139°40'0 0.0
2015-May-21 01:33N 35°27' E 139°40'0 0.0
2015-May-21 00:33N 35°27' E 139°40'0 0.0
2015-May-20 23:33N 35°27' E 139°40'0 0.0
2015-May-20 22:33N 35°27' E 139°40'2 2.4
2015-May-20 21:33N 35°27' E 139°42'2 2.4
2015-May-20 20:33N 35°27' E 139°40'1 0.0
2015-May-20 06:33N 35°27' E 139°40'0 0.5
2015-May-20 05:33N 35°27' E 139°40'1 0.8
2015-May-20 04:33N 35°28' E 139°41'0 0.2
2015-May-20 03:33N 35°27' E 139°40'2 2.2
2015-May-20 02:33N 35°26' E 139°42'0 0.3
2015-May-20 01:33N 35°26' E 139°42'1 1.2
2015-May-20 00:33N 35°27' E 139°41'1 1.3
2015-May-19 23:34N 35°27' E 139°39'  

Dump ship's entire track history